Time;durP1;ratioP1;P1;durP2;ratioP2;P2;SDS_P1;SDS_P2;PMS_P1;PMS_P2;Temp;Humidity;BMP_temperature;BMP_pressure;BME280_temperature;BME280_humidity;BME280_pressure;Samples;Min_cycle;Max_cycle;Signal;HPM_P1;HPM_P2
2024/01/31 00:00:09;;;;;;;19.40;10.23;;;4.50;99.90;3.50;101172;;;;617249;232;24038;-81
2024/01/31 00:02:33;;;;;;;25.03;10.37;;;4.50;99.90;3.50;101174;;;;616544;232;24007;-82
2024/01/31 00:05:01;;;;;;;20.87;10.80;;;4.40;99.90;3.40;101173;;;;617263;232;24060;-82
2024/01/31 00:07:29;;;;;;;17.47;10.33;;;4.40;99.90;3.40;101173;;;;617140;231;24112;-82
2024/01/31 00:09:57;;;;;;;13.90;9.37;;;4.30;99.90;3.30;101167;;;;617308;232;24121;-80
2024/01/31 00:12:27;;;;;;;20.40;11.17;;;4.30;99.90;3.30;101165;;;;617171;232;24067;-81
2024/01/31 00:14:52;;;;;;;21.43;11.33;;;4.20;99.90;3.20;101173;;;;617462;232;24011;-81
2024/01/31 00:17:21;;;;;;;19.97;11.77;;;4.10;99.90;3.20;101182;;;;617584;232;24042;-81
2024/01/31 00:19:49;;;;;;;18.70;11.47;;;4.10;99.90;3.30;101173;;;;617115;232;24022;-81
2024/01/31 00:22:17;;;;;;;19.00;10.40;;;4.20;99.90;3.30;101182;;;;617293;232;24045;-80
2024/01/31 00:24:45;;;;;;;19.17;10.10;;;4.20;99.90;3.40;101180;;;;617201;232;24077;-80
2024/01/31 00:27:13;;;;;;;20.10;11.13;;;4.40;99.90;3.50;101193;;;;617310;231;24047;-80
2024/01/31 00:29:41;;;;;;;17.03;11.03;;;4.40;99.90;3.60;101184;;;;617213;232;24025;-82
2024/01/31 00:32:09;;;;;;;25.73;16.33;;;4.50;99.90;3.70;101197;;;;612114;230;34843;-82
2024/01/31 00:34:37;;;;;;;21.87;13.57;;;4.60;99.90;3.70;101189;;;;618790;232;24049;-81
2024/01/31 00:37:06;;;;;;;16.17;11.63;;;4.70;99.90;3.80;101186;;;;618275;232;24031;-80
2024/01/31 00:39:34;;;;;;;16.10;10.10;;;4.70;99.90;3.90;101181;;;;618169;230;24014;-81
2024/01/31 00:42:01;;;;;;;20.57;10.33;;;4.80;99.90;4.00;101179;;;;617850;231;24087;-81
2024/01/31 00:44:29;;;;;;;16.33;10.07;;;4.90;99.90;4.00;101179;;;;617982;232;24076;-81
2024/01/31 00:46:57;;;;;;;23.60;11.73;;;4.90;99.90;4.00;101181;;;;618304;230;24034;-80
2024/01/31 00:49:26;;;;;;;22.07;10.07;;;5.00;99.90;4.10;101179;;;;618315;232;24037;-81
2024/01/31 00:51:54;;;;;;;17.63;9.77;;;5.00;99.90;4.20;101177;;;;618038;232;24029;-81
2024/01/31 00:54:21;;;;;;;16.53;9.27;;;5.10;99.90;4.30;101179;;;;618035;230;24035;-81
2024/01/31 00:56:49;;;;;;;22.70;11.07;;;5.20;99.90;4.30;101177;;;;617934;232;24015;-81
2024/01/31 00:59:22;;;;;;;24.13;12.50;;;5.20;99.90;4.30;101173;;;;617912;231;24055;-81
2024/01/31 01:01:46;;;;;;;21.90;12.33;;;5.20;99.90;4.30;101169;;;;617522;232;23994;-82
2024/01/31 01:04:14;;;;;;;18.07;11.00;;;5.30;99.90;4.40;101164;;;;617947;232;24070;-82
2024/01/31 01:06:42;;;;;;;22.47;12.20;;;5.30;99.90;4.40;101173;;;;617994;232;24023;-81
2024/01/31 01:09:10;;;;;;;29.00;11.13;;;5.30;99.90;4.50;101161;;;;617806;232;24011;-81
2024/01/31 01:11:37;;;;;;;19.37;10.20;;;5.30;99.90;4.50;101163;;;;617610;231;24087;-80
2024/01/31 01:14:06;;;;;;;24.37;10.30;;;5.40;99.90;4.50;101155;;;;617633;232;24010;-81
2024/01/31 01:16:33;;;;;;;19.33;9.70;;;5.40;99.90;4.50;101164;;;;617215;232;24015;-82
2024/01/31 01:19:05;;;;;;;24.40;11.97;;;5.40;99.90;4.50;101156;;;;616640;232;24007;-81
2024/01/31 01:21:32;;;;;;;20.57;11.50;;;5.50;99.90;4.60;101154;;;;616525;232;24031;-81
2024/01/31 01:23:57;;;;;;;26.07;11.27;;;5.50;99.90;4.60;101157;;;;616695;230;23999;-80
2024/01/31 01:26:25;;;;;;;29.90;10.83;;;5.50;99.90;4.60;101164;;;;617258;231;24021;-81
2024/01/31 01:28:53;;;;;;;24.77;12.47;;;5.60;99.90;4.70;101157;;;;617205;231;24032;-81
2024/01/31 01:31:21;;;;;;;22.00;10.73;;;5.50;99.90;4.70;101156;;;;617124;232;24061;-81
2024/01/31 01:33:49;;;;;;;19.50;11.07;;;5.60;99.90;4.70;101155;;;;617283;232;24055;-81
2024/01/31 01:36:18;;;;;;;21.37;10.40;;;5.60;99.90;4.70;101154;;;;617103;231;24055;-82
2024/01/31 01:38:46;;;;;;;20.10;10.97;;;5.60;99.90;4.80;101152;;;;617278;231;24011;-81
2024/01/31 01:41:14;;;;;;;22.67;10.93;;;5.70;99.90;4.80;101167;;;;617291;231;24022;-81
2024/01/31 01:43:42;;;;;;;22.60;11.23;;;5.70;99.90;4.90;101167;;;;617709;232;24037;-81
2024/01/31 01:46:15;;;;;;;24.80;11.67;;;5.70;99.90;4.90;101170;;;;619179;230;24028;-82
2024/01/31 01:48:45;;;;;;;25.60;12.37;;;5.80;99.90;4.90;101159;;;;618582;232;24045;-81
2024/01/31 01:51:17;;;;;;;25.87;10.93;;;5.80;99.90;4.90;101169;;;;618563;230;24022;-82
2024/01/31 01:53:47;;;;;;;24.37;10.20;;;5.80;99.90;5.00;101161;;;;618058;232;24041;-81
2024/01/31 01:56:15;;;;;;;30.70;12.60;;;5.90;99.90;5.00;101167;;;;618110;232;24022;-81
2024/01/31 01:58:43;;;;;;;16.00;10.53;;;5.90;99.90;5.00;101170;;;;618177;232;24026;-81
2024/01/31 02:01:14;;;;;;;24.97;11.83;;;5.90;99.90;5.00;101162;;;;618227;231;24025;-81
2024/01/31 02:03:41;;;;;;;26.27;12.83;;;5.90;99.90;5.00;101160;;;;617534;230;24035;-81
2024/01/31 02:06:07;;;;;;;18.83;11.20;;;5.90;99.90;5.00;101166;;;;617862;231;24025;-81
2024/01/31 02:08:35;;;;;;;22.40;11.30;;;5.90;99.90;5.00;101164;;;;617558;232;24028;-83
2024/01/31 02:11:07;;;;;;;20.30;10.93;;;5.90;99.90;5.00;101159;;;;617498;232;24022;-82
2024/01/31 02:13:32;;;;;;;22.17;10.93;;;5.90;99.90;5.00;101170;;;;617118;231;24078;-81
2024/01/31 02:16:03;;;;;;;22.70;12.00;;;5.90;99.90;5.00;101166;;;;617939;232;24047;-81
2024/01/31 02:18:33;;;;;;;21.47;11.60;;;5.90;99.90;5.00;101158;;;;617327;231;24071;-81
2024/01/31 02:20:58;;;;;;;30.53;12.13;;;5.90;99.90;5.00;101161;;;;617102;232;24021;-82
2024/01/31 02:23:26;;;;;;;24.00;11.33;;;5.90;99.90;5.00;101164;;;;617137;232;24036;-81
2024/01/31 02:25:54;;;;;;;28.83;11.77;;;5.90;99.90;5.00;101167;;;;617319;232;24050;-81
2024/01/31 02:28:23;;;;;;;22.97;12.43;;;5.80;99.90;4.90;101163;;;;617188;231;24061;-81
2024/01/31 02:30:50;;;;;;;25.70;11.60;;;5.80;99.90;4.90;101156;;;;617325;232;24077;-81
2024/01/31 02:33:18;;;;;;;17.93;10.67;;;5.80;99.90;4.80;101163;;;;617161;232;24023;-81
2024/01/31 02:35:46;;;;;;;24.50;11.00;;;5.70;99.90;4.80;101162;;;;617635;232;24022;-81
2024/01/31 02:38:15;;;;;;;21.20;11.43;;;5.70;99.90;4.80;101141;;;;617243;231;24026;-81
2024/01/31 02:40:43;;;;;;;22.30;11.47;;;5.70;99.90;4.80;101140;;;;617115;232;24014;-81
2024/01/31 02:43:11;;;;;;;21.23;11.97;;;5.70;99.90;4.80;101141;;;;617295;232;24045;-80
2024/01/31 02:45:39;;;;;;;21.97;10.47;;;5.70;99.90;4.80;101148;;;;617158;232;24019;-80
2024/01/31 02:48:08;;;;;;;18.03;9.83;;;5.70;99.90;4.80;101146;;;;617622;231;24033;-81
2024/01/31 02:50:35;;;;;;;25.17;10.80;;;5.60;99.90;4.80;101148;;;;617522;232;24009;-81
2024/01/31 02:53:03;;;;;;;23.20;9.30;;;5.60;99.90;4.70;101153;;;;617101;232;24045;-81
2024/01/31 02:55:31;;;;;;;21.57;10.73;;;5.60;99.90;4.70;101154;;;;617561;230;24033;-81
2024/01/31 02:57:59;;;;;;;19.03;10.73;;;5.60;99.90;4.60;101150;;;;618758;230;24069;-81
2024/01/31 03:00:37;;;;;;;21.50;11.53;;;5.50;99.90;4.60;101145;;;;618432;232;24018;-81
2024/01/31 03:02:57;;;;;;;25.83;11.53;;;5.50;99.90;4.50;101147;;;;616792;232;24069;-81
2024/01/31 03:05:25;;;;;;;23.53;11.03;;;5.50;99.90;4.50;101145;;;;618106;230;25107;-81
2024/01/31 03:07:53;;;;;;;20.90;10.43;;;5.40;99.90;4.50;101147;;;;617871;232;24064;-79
2024/01/31 03:10:21;;;;;;;18.83;10.83;;;5.40;99.90;4.50;101148;;;;617679;231;24026;-82
2024/01/31 03:12:49;;;;;;;21.53;10.37;;;5.40;99.90;4.50;101146;;;;617878;232;24057;-81
2024/01/31 03:15:17;;;;;;;16.27;10.03;;;5.40;99.90;4.50;101135;;;;617506;231;24062;-80
2024/01/31 03:17:45;;;;;;;17.80;9.00;;;5.40;99.90;4.40;101141;;;;617832;228;24121;-81
2024/01/31 03:20:16;;;;;;;24.40;13.10;;;5.30;99.90;4.40;101140;;;;617566;232;24062;-80
2024/01/31 03:22:44;;;;;;;21.00;12.10;;;5.30;99.90;4.40;101140;;;;617538;232;24010;-81
2024/01/31 03:25:13;;;;;;;20.87;11.40;;;5.30;99.90;4.40;101132;;;;617471;232;24094;-80
2024/01/31 03:27:41;;;;;;;19.07;10.63;;;5.30;99.90;4.40;101139;;;;617267;232;24053;-81
2024/01/31 03:30:09;;;;;;;22.93;10.97;;;5.30;99.90;4.40;101132;;;;617640;232;24041;-81
2024/01/31 03:32:39;;;;;;;19.90;11.17;;;5.30;99.90;4.40;101144;;;;617242;230;24065;-81
2024/01/31 03:35:04;;;;;;;28.97;11.03;;;5.30;99.90;4.40;101145;;;;616352;232;24120;-80
2024/01/31 03:37:32;;;;;;;17.10;9.90;;;5.30;99.90;4.40;101147;;;;617094;231;24022;-80
2024/01/31 03:40:00;;;;;;;22.03;11.63;;;5.30;99.90;4.40;101139;;;;617112;231;26160;-81
2024/01/31 03:42:28;;;;;;;22.10;12.07;;;5.30;99.90;4.50;101145;;;;617237;231;24020;-81
2024/01/31 03:44:57;;;;;;;24.77;13.10;;;5.30;99.90;4.50;101144;;;;617131;231;24013;-81
2024/01/31 03:47:24;;;;;;;35.87;19.23;;;5.30;99.90;4.50;101142;;;;617604;232;24033;-82
2024/01/31 03:49:53;;;;;;;35.30;19.57;;;5.30;99.90;4.50;101150;;;;617631;232;24065;-81
2024/01/31 03:52:22;;;;;;;31.93;17.43;;;5.40;99.90;4.50;101141;;;;617518;231;24041;-81
2024/01/31 03:54:49;;;;;;;24.17;13.07;;;5.40;99.90;4.50;101135;;;;617534;232;24022;-81
2024/01/31 03:57:17;;;;;;;26.17;14.57;;;5.40;99.90;4.50;101135;;;;617632;230;24062;-82
2024/01/31 03:59:45;;;;;;;51.70;30.03;;;5.40;99.90;4.50;101144;;;;612245;232;34836;-82
2024/01/31 04:02:13;;;;;;;39.53;23.57;;;5.40;99.90;4.50;101136;;;;617585;231;24090;-80
2024/01/31 04:04:41;;;;;;;40.70;20.90;;;5.40;99.90;4.50;101151;;;;617643;232;25120;-81
2024/01/31 04:07:09;;;;;;;28.37;16.63;;;5.40;99.90;4.50;101149;;;;617932;230;24035;-81
2024/01/31 04:09:37;;;;;;;29.47;14.53;;;5.40;99.90;4.50;101159;;;;619216;232;24050;-81
2024/01/31 04:12:05;;;;;;;26.90;14.87;;;5.40;99.90;4.40;101148;;;;618736;232;24032;-82
2024/01/31 04:14:33;;;;;;;29.63;15.83;;;5.30;99.90;4.40;101144;;;;618431;230;23999;-81
2024/01/31 04:17:01;;;;;;;29.20;13.37;;;5.20;99.90;4.30;101146;;;;618086;232;24054;-81
2024/01/31 04:19:29;;;;;;;39.07;17.60;;;5.20;99.90;4.20;101143;;;;618212;230;24098;-81
2024/01/31 04:21:57;;;;;;;27.77;15.10;;;5.10;99.90;4.10;101150;;;;618152;231;24061;-82
2024/01/31 04:24:28;;;;;;;36.07;16.57;;;5.00;99.90;4.10;101150;;;;618318;232;24065;-81
2024/01/31 04:26:57;;;;;;;23.27;14.40;;;4.90;99.90;4.00;101147;;;;617978;232;24014;-81
2024/01/31 04:29:25;;;;;;;30.20;15.00;;;4.90;99.90;4.00;101158;;;;617920;232;24054;-80
2024/01/31 04:31:53;;;;;;;21.00;12.47;;;4.90;99.90;3.90;101161;;;;617876;232;24085;-82
2024/01/31 04:34:21;;;;;;;31.60;12.70;;;4.80;99.90;3.90;101148;;;;618148;232;24046;-80
2024/01/31 04:36:49;;;;;;;16.07;9.97;;;4.70;99.90;3.80;101146;;;;618146;230;24017;-81
2024/01/31 04:39:17;;;;;;;20.97;10.53;;;4.70;99.90;3.80;101149;;;;617534;232;24033;-80
2024/01/31 04:41:46;;;;;;;24.73;13.50;;;4.70;99.90;3.70;101164;;;;617996;232;24027;-80
2024/01/31 04:44:13;;;;;;;24.50;12.47;;;4.60;99.90;3.70;101160;;;;617600;232;24072;-80
2024/01/31 04:46:41;;;;;;;28.53;12.60;;;4.60;99.90;3.70;101158;;;;617579;232;24050;-80
2024/01/31 04:49:13;;;;;;;27.87;13.53;;;4.60;99.90;3.70;101153;;;;605721;232;24011;-82
2024/01/31 04:51:41;;;;;;;22.00;13.33;;;4.60;99.90;3.70;101153;;;;605358;232;24071;-82
2024/01/31 04:54:09;;;;;;;24.10;12.27;;;4.60;99.90;3.70;101152;;;;605605;232;24022;-82
2024/01/31 04:56:37;;;;;;;32.27;13.80;;;4.60;99.90;3.80;101146;;;;612015;232;24215;-81
2024/01/31 04:59:05;;;;;;;21.10;13.20;;;4.70;99.90;3.80;101139;;;;611961;232;24018;-80
2024/01/31 05:01:33;;;;;;;24.50;13.43;;;4.70;99.90;3.90;101141;;;;605551;232;24005;-80
2024/01/31 05:04:05;;;;;;;22.37;12.00;;;4.70;99.90;3.80;101134;;;;605669;232;23997;-81
2024/01/31 05:06:30;;;;;;;29.00;13.50;;;4.70;99.90;3.80;101145;;;;605074;232;24073;-79
2024/01/31 05:08:58;;;;;;;31.30;15.20;;;4.70;99.90;3.80;101139;;;;605476;232;24031;-82
2024/01/31 05:11:26;;;;;;;24.70;12.60;;;4.70;99.90;3.80;101142;;;;602385;235;24168;-76
2024/01/31 05:13:54;;;;;;;27.27;13.60;;;4.70;99.90;3.80;101145;;;;602276;234;24018;-76
2024/01/31 05:16:22;;;;;;;20.63;12.10;;;4.70;99.90;3.80;101141;;;;602004;234;24064;-76
2024/01/31 05:18:51;;;;;;;28.17;12.03;;;4.80;99.90;3.90;101136;;;;608710;230;24099;-76
2024/01/31 05:21:19;;;;;;;25.03;12.23;;;4.80;99.90;4.00;101137;;;;611238;231;24003;-74
2024/01/31 05:23:47;;;;;;;22.77;12.87;;;4.80;99.90;4.00;101136;;;;611133;231;24099;-76
2024/01/31 05:26:15;;;;;;;26.40;13.20;;;4.90;99.90;4.10;101140;;;;610685;231;24059;-76
2024/01/31 05:28:43;;;;;;;25.27;11.37;;;5.00;99.90;4.10;101139;;;;610525;231;24131;-76
2024/01/31 05:31:11;;;;;;;21.73;11.53;;;5.00;99.90;4.20;101151;;;;610514;231;24046;-76
2024/01/31 05:33:39;;;;;;;26.00;11.53;;;5.10;99.90;4.30;101147;;;;610405;231;24009;-78
2024/01/31 05:36:10;;;;;;;25.97;13.60;;;5.10;99.90;4.30;101137;;;;610671;231;24030;-78
2024/01/31 05:38:35;;;;;;;25.63;12.23;;;5.20;99.90;4.40;101136;;;;609693;231;24022;-76
2024/01/31 05:41:03;;;;;;;24.60;13.47;;;5.30;99.90;4.40;101143;;;;610416;231;24022;-77
2024/01/31 05:43:31;;;;;;;22.63;12.03;;;5.30;99.90;4.50;101143;;;;610618;231;24046;-76
2024/01/31 05:45:59;;;;;;;20.70;12.47;;;5.40;99.90;4.50;101133;;;;610123;231;23998;-77
2024/01/31 05:48:30;;;;;;;27.63;14.20;;;5.40;99.90;4.50;101145;;;;610580;231;25106;-76
2024/01/31 05:51:01;;;;;;;27.63;12.90;;;5.50;99.90;4.60;101136;;;;610171;231;24063;-74
2024/01/31 05:53:25;;;;;;;32.20;19.52;;;5.50;99.90;4.60;101140;;;;604559;231;34903;-75
2024/01/31 05:55:53;;;;;;;28.93;15.93;;;5.50;99.90;4.60;101144;;;;610305;231;24004;-74
2024/01/31 05:58:23;;;;;;;23.47;13.20;;;5.60;99.90;4.70;101145;;;;610212;231;23985;-76
2024/01/31 06:00:49;;;;;;;20.70;12.13;;;5.60;99.90;4.70;101142;;;;610066;231;23999;-77
2024/01/31 06:03:17;;;;;;;23.93;13.17;;;5.60;99.90;4.80;101138;;;;610252;231;24005;-76
2024/01/31 06:05:44;;;;;;;28.87;13.30;;;5.70;99.90;4.80;101140;;;;610290;231;24028;-76
2024/01/31 06:08:15;;;;;;;23.13;13.87;;;5.70;99.90;4.90;101138;;;;610224;231;24033;-78
2024/01/31 06:10:40;;;;;;;27.60;13.70;;;5.70;99.90;4.90;101134;;;;609855;231;24014;-78
2024/01/31 06:13:09;;;;;;;30.17;14.40;;;5.80;99.90;4.90;101141;;;;610263;231;24004;-77
2024/01/31 06:15:37;;;;;;;22.90;12.27;;;5.80;99.90;5.00;101141;;;;609517;231;24076;-77
2024/01/31 06:18:05;;;;;;;23.50;12.93;;;5.90;99.90;5.00;101139;;;;609897;231;24003;-76
2024/01/31 06:20:39;;;;;;;22.73;11.73;;;5.90;99.90;5.00;101138;;;;610151;231;24124;-77
2024/01/31 06:23:01;;;;;;;24.00;11.23;;;5.90;99.90;5.10;101127;;;;609675;231;24005;-76
2024/01/31 06:25:28;;;;;;;17.97;10.10;;;5.90;99.90;5.10;101135;;;;610235;231;24002;-77
2024/01/31 06:27:57;;;;;;;28.40;17.93;;;6.00;99.90;5.10;101139;;;;604877;231;45731;-75
2024/01/31 06:30:31;;;;;;;22.27;14.83;;;6.00;99.90;5.10;101139;;;;610548;229;24036;-76
2024/01/31 06:32:54;;;;;;;20.87;13.00;;;6.00;99.90;5.20;101135;;;;611434;231;24065;-77
2024/01/31 06:35:22;;;;;;;27.53;17.80;;;6.00;99.90;5.20;101150;;;;605937;231;34919;-75
2024/01/31 06:37:50;;;;;;;22.23;14.93;;;6.10;99.90;5.20;101139;;;;611048;231;24043;-77
2024/01/31 06:40:17;;;;;;;20.20;12.30;;;6.10;99.90;5.30;101151;;;;611066;231;24014;-78
2024/01/31 06:42:45;;;;;;;18.80;11.93;;;6.10;99.90;5.30;101145;;;;610803;231;24084;-76
2024/01/31 06:45:18;;;;;;;21.73;12.23;;;6.10;99.90;5.30;101144;;;;610732;231;24004;-76
2024/01/31 06:47:42;;;;;;;18.20;11.57;;;6.10;99.90;5.20;101145;;;;610176;231;24020;-76
2024/01/31 06:50:14;;;;;;;13.97;10.60;;;6.10;99.90;5.30;101140;;;;610163;231;24004;-77
2024/01/31 06:52:38;;;;;;;18.97;10.43;;;6.10;99.90;5.20;101158;;;;609809;231;24034;-77
2024/01/31 06:55:06;;;;;;;21.33;13.43;;;6.10;99.90;5.30;101155;;;;610596;231;24030;-75
2024/01/31 06:57:34;;;;;;;24.63;10.93;;;6.10;99.90;5.30;101164;;;;610489;231;24057;-76
2024/01/31 07:00:03;;;;;;;16.83;11.43;;;6.10;99.90;5.30;101164;;;;610240;231;24043;-75
2024/01/31 07:02:29;;;;;;;17.47;9.73;;;6.10;99.90;5.30;101163;;;;610318;231;24062;-75
2024/01/31 07:04:57;;;;;;;18.07;11.13;;;6.20;99.90;5.30;101164;;;;610556;231;24055;-76
2024/01/31 07:07:25;;;;;;;24.57;16.53;;;6.20;99.90;5.30;101164;;;;604985;231;34892;-75
2024/01/31 07:09:53;;;;;;;23.53;13.67;;;6.20;99.90;5.30;101161;;;;610233;231;24048;-76
2024/01/31 07:12:21;;;;;;;22.27;12.23;;;6.20;99.90;5.30;101164;;;;610192;231;23996;-76
2024/01/31 07:14:50;;;;;;;23.97;13.77;;;6.20;99.90;5.30;101170;;;;610180;231;24000;-77
2024/01/31 07:17:18;;;;;;;19.03;11.20;;;6.20;99.90;5.30;101164;;;;609887;231;24036;-77
2024/01/31 07:19:46;;;;;;;17.40;11.00;;;6.20;99.90;5.30;101165;;;;609854;231;24017;-77
2024/01/31 07:22:14;;;;;;;16.10;10.90;;;6.10;99.90;5.30;101157;;;;610224;231;24052;-77
2024/01/31 07:24:42;;;;;;;17.63;11.33;;;6.20;99.90;5.40;101160;;;;610177;231;24069;-78
2024/01/31 07:27:10;;;;;;;16.23;10.37;;;6.20;99.90;5.40;101162;;;;610279;231;25043;-77
2024/01/31 07:29:38;;;;;;;17.47;11.20;;;6.30;99.90;5.40;101163;;;;610290;231;24097;-76
2024/01/31 07:32:06;;;;;;;14.13;10.17;;;6.20;99.90;5.40;101168;;;;610249;231;24000;-76
2024/01/31 07:34:34;;;;;;;20.10;11.33;;;6.30;99.90;5.50;101160;;;;610217;231;24013;-75
2024/01/31 07:37:03;;;;;;;19.43;11.40;;;6.40;99.90;5.60;101168;;;;610279;231;24007;-78
2024/01/31 07:39:30;;;;;;;32.23;12.70;;;6.40;99.90;5.60;101167;;;;610183;231;24009;-77
2024/01/31 07:42:01;;;;;;;19.40;11.23;;;6.50;99.90;5.60;101164;;;;610486;229;23999;-77
2024/01/31 07:44:26;;;;;;;19.77;10.77;;;6.50;99.90;5.60;101174;;;;621320;228;23999;-77
2024/01/31 07:46:53;;;;;;;14.83;10.33;;;6.50;99.90;5.70;101168;;;;611281;231;24077;-77
2024/01/31 07:49:22;;;;;;;16.67;9.87;;;6.50;99.90;5.70;101177;;;;610673;231;24004;-76
2024/01/31 07:51:56;;;;;;;19.17;11.70;;;6.50;99.90;5.60;101177;;;;610652;231;23995;-74
2024/01/31 07:54:19;;;;;;;19.87;11.53;;;6.40;99.90;5.80;101169;;;;610420;231;24033;-77
2024/01/31 07:56:47;;;;;;;18.83;9.17;;;6.60;99.90;6.00;101170;;;;610933;231;24056;-75
2024/01/31 07:59:14;;;;;;;15.43;10.70;;;6.80;99.90;6.20;101182;;;;611211;231;24011;-76
2024/01/31 08:01:42;;;;;;;16.20;10.60;;;7.00;99.90;6.50;101170;;;;610543;231;24002;-75
2024/01/31 08:04:10;;;;;;;22.57;11.30;;;7.20;99.90;6.60;101176;;;;610553;231;24012;-78
2024/01/31 08:06:38;;;;;;;18.57;11.33;;;7.40;99.90;6.70;101179;;;;610620;231;24044;-76
2024/01/31 08:09:06;;;;;;;16.83;10.83;;;7.50;99.90;6.70;101179;;;;610384;231;24075;-76
2024/01/31 08:11:34;;;;;;;16.37;9.27;;;7.60;99.90;6.70;101173;;;;610475;231;24069;-76
2024/01/31 08:14:02;;;;;;;13.27;8.23;;;7.50;99.90;6.70;101168;;;;610188;231;24092;-76
2024/01/31 08:16:30;;;;;;;15.93;9.33;;;7.50;99.90;6.80;101164;;;;610479;231;24072;-76
2024/01/31 08:18:58;;;;;;;16.83;10.67;;;7.60;99.90;6.80;101167;;;;610004;231;24026;-76
2024/01/31 08:21:26;;;;;;;15.87;10.60;;;7.60;99.90;6.90;101164;;;;610099;231;24008;-76
2024/01/31 08:23:54;;;;;;;14.07;10.07;;;7.70;99.90;6.90;101168;;;;610319;231;24004;-76
2024/01/31 08:26:23;;;;;;;14.77;9.33;;;7.70;99.90;6.90;101169;;;;610418;231;24079;-76
2024/01/31 08:28:51;;;;;;;21.43;10.23;;;7.70;99.90;7.00;101168;;;;610428;231;24042;-75
2024/01/31 08:31:20;;;;;;;14.50;9.30;;;7.90;99.90;7.10;101167;;;;610385;231;24018;-77
2024/01/31 08:33:48;;;;;;;11.93;7.93;;;7.90;99.90;7.10;101165;;;;610120;231;23986;-75
2024/01/31 08:36:17;;;;;;;13.00;7.93;;;8.00;99.90;7.20;101162;;;;610212;231;24023;-75
2024/01/31 08:38:45;;;;;;;13.90;8.97;;;7.90;99.90;7.20;101166;;;;610790;231;24011;-75
2024/01/31 08:41:13;;;;;;;14.70;7.83;;;8.00;99.90;7.30;101171;;;;611194;231;24081;-76
2024/01/31 08:43:41;;;;;;;14.97;8.07;;;8.10;99.90;7.20;101167;;;;611239;231;24045;-76
2024/01/31 08:46:09;;;;;;;12.97;9.20;;;8.10;99.90;7.30;101176;;;;611370;231;24002;-75
2024/01/31 08:48:38;;;;;;;14.97;8.70;;;8.10;99.90;7.30;101165;;;;611324;231;23997;-76
2024/01/31 08:51:08;;;;;;;11.33;8.83;;;8.10;99.90;7.30;101164;;;;616111;231;24005;-77
2024/01/31 08:53:33;;;;;;;20.07;10.23;;;8.10;99.90;7.30;101160;;;;620292;230;24002;-76
2024/01/31 08:56:01;;;;;;;15.17;9.53;;;8.10;99.90;7.30;101162;;;;611767;231;24037;-76
2024/01/31 08:58:29;;;;;;;11.00;8.13;;;8.10;99.90;7.20;101156;;;;611326;231;23997;-76
2024/01/31 09:00:59;;;;;;;11.70;7.93;;;8.00;99.90;7.20;101178;;;;611085;231;24017;-75
2024/01/31 09:03:25;;;;;;;13.80;7.17;;;8.10;99.90;7.20;101166;;;;610763;231;24090;-76
2024/01/31 09:05:55;;;;;;;11.47;8.33;;;8.10;99.90;7.30;101172;;;;610536;231;23994;-77
2024/01/31 09:08:21;;;;;;;14.83;8.93;;;8.10;99.90;7.30;101175;;;;610358;231;24076;-78
2024/01/31 09:10:48;;;;;;;9.37;6.50;;;8.10;99.90;7.20;101174;;;;610584;231;24026;-78
2024/01/31 09:13:16;;;;;;;10.20;7.40;;;8.10;99.90;7.20;101177;;;;610537;231;24033;-76
2024/01/31 09:15:44;;;;;;;8.47;6.60;;;8.00;99.90;7.20;101182;;;;610444;231;24030;-76
2024/01/31 09:18:12;;;;;;;10.70;7.70;;;8.00;99.90;7.20;101176;;;;610258;231;24041;-76
2024/01/31 09:20:41;;;;;;;8.93;6.73;;;8.00;99.90;7.20;101167;;;;610108;231;24058;-76
2024/01/31 09:23:09;;;;;;;10.70;7.30;;;8.00;99.90;7.30;101172;;;;610127;231;24042;-76
2024/01/31 09:25:37;;;;;;;8.27;5.60;;;8.10;99.90;7.40;101175;;;;610510;231;24007;-77
2024/01/31 09:28:05;;;;;;;7.37;5.93;;;8.20;99.90;7.50;101187;;;;610541;231;24042;-75
2024/01/31 09:30:32;;;;;;;10.10;5.90;;;8.30;99.90;7.60;101181;;;;610236;231;24018;-76
2024/01/31 09:33:00;;;;;;;9.17;6.23;;;8.30;99.90;7.70;101187;;;;610202;231;24088;-76
2024/01/31 09:35:28;;;;;;;13.73;7.00;;;8.50;99.90;7.70;101179;;;;610264;231;24011;-75
2024/01/31 09:37:57;;;;;;;11.47;7.23;;;8.50;99.90;7.70;101178;;;;610280;231;24021;-76
2024/01/31 09:40:25;;;;;;;12.50;6.80;;;8.50;99.90;7.70;101180;;;;610193;231;24038;-77
2024/01/31 09:42:53;;;;;;;9.03;6.23;;;8.50;99.90;7.70;101180;;;;610166;231;24000;-77
2024/01/31 09:45:21;;;;;;;9.60;6.33;;;8.50;99.90;7.60;101176;;;;610134;231;24018;-77
2024/01/31 09:47:52;;;;;;;9.13;6.83;;;8.40;99.90;7.60;101177;;;;620211;230;24019;-76
2024/01/31 09:50:19;;;;;;;9.37;7.07;;;8.40;99.90;7.50;101165;;;;609953;231;24010;-76
2024/01/31 09:52:45;;;;;;;6.13;5.27;;;8.30;99.90;7.50;101160;;;;609749;231;24054;-75
2024/01/31 09:55:16;;;;;;;8.13;5.77;;;8.30;99.90;7.30;101153;;;;619323;229;24044;-75
2024/01/31 09:57:41;;;;;;;7.07;5.97;;;8.20;99.90;7.30;101162;;;;619731;231;24059;-76
2024/01/31 10:00:09;;;;;;;8.43;5.40;;;8.10;99.90;7.20;101159;;;;620126;231;23997;-76
2024/01/31 10:02:37;;;;;;;7.40;5.63;;;8.00;99.90;7.10;101137;;;;610186;231;24003;-77
2024/01/31 10:05:08;;;;;;;7.57;5.13;;;8.00;99.90;7.10;101142;;;;610471;229;24027;-75
2024/01/31 10:07:33;;;;;;;5.03;4.37;;;7.90;99.90;7.10;101142;;;;611460;231;24090;-76
2024/01/31 10:10:01;;;;;;;8.20;5.60;;;7.80;99.90;7.00;101151;;;;611090;231;24076;-77
2024/01/31 10:12:29;;;;;;;5.93;5.30;;;7.80;99.90;7.00;101163;;;;611059;231;24015;-76
2024/01/31 10:14:57;;;;;;;8.47;5.00;;;7.80;99.90;6.90;101151;;;;610978;231;24108;-75
2024/01/31 10:17:25;;;;;;;5.57;3.97;;;7.70;99.90;6.90;101154;;;;610625;231;24065;-76
2024/01/31 10:19:53;;;;;;;5.33;4.27;;;7.70;99.90;6.90;101150;;;;610767;231;24059;-75
2024/01/31 10:22:22;;;;;;;4.90;3.67;;;7.70;99.90;6.90;101155;;;;610469;231;24016;-76
2024/01/31 10:24:52;;;;;;;3.33;3.03;;;7.70;99.90;7.00;101143;;;;609947;231;24025;-76
2024/01/31 10:27:22;;;;;;;4.70;4.30;;;7.80;99.90;7.00;101149;;;;605047;231;56681;-77
2024/01/31 10:29:50;;;;;;;3.70;2.77;;;7.80;99.90;7.10;101149;;;;610490;231;24022;-75
2024/01/31 10:32:21;;;;;;;4.00;2.40;;;7.90;99.90;7.20;101151;;;;610648;231;24073;-75
2024/01/31 10:34:46;;;;;;;2.13;2.00;;;8.00;99.90;7.20;101138;;;;620198;229;24074;-76
2024/01/31 10:37:14;;;;;;;1.90;1.70;;;8.00;99.90;7.20;101165;;;;610505;231;24090;-76
2024/01/31 10:39:45;;;;;;;2.30;1.53;;;8.00;99.90;7.20;101156;;;;610502;231;24000;-76
2024/01/31 10:42:10;;;;;;;1.23;1.20;;;8.00;99.90;7.10;101158;;;;609905;231;24003;-77
2024/01/31 10:44:38;;;;;;;2.90;1.00;;;8.00;99.90;7.10;101158;;;;610288;231;24005;-76
2024/01/31 10:47:06;;;;;;;1.53;1.40;;;7.90;99.90;7.10;101155;;;;609992;231;24011;-76
2024/01/31 10:49:34;;;;;;;3.20;1.13;;;7.90;99.90;7.10;101158;;;;620030;231;24058;-76
2024/01/31 10:52:01;;;;;;;0.97;0.97;;;7.90;99.90;7.10;101174;;;;610276;231;24019;-75
2024/01/31 10:54:29;;;;;;;0.30;0.30;;;7.90;99.90;7.00;101169;;;;609961;231;24103;-76
2024/01/31 10:56:57;;;;;;;1.90;0.70;;;7.80;99.90;6.90;101159;;;;620019;229;24024;-75
2024/01/31 10:59:25;;;;;;;0.83;0.83;;;7.70;99.90;6.90;101175;;;;610146;231;24047;-76
2024/01/31 11:01:59;;;;;;;3.07;1.23;;;7.70;99.90;6.90;101175;;;;610184;231;24023;-76
2024/01/31 11:04:26;;;;;;;2.40;1.03;;;7.70;99.90;6.90;101172;;;;609684;231;24049;-76
2024/01/31 11:06:52;;;;;;;1.77;1.07;;;7.60;99.90;6.80;101195;;;;609948;231;24052;-75
2024/01/31 11:09:23;;;;;;;2.67;1.03;;;7.60;99.90;6.70;101186;;;;610253;231;23993;-75
2024/01/31 11:12:08;;;;;;;1.20;1.10;;;7.60;99.90;6.60;101183;;;;619959;230;24087;-78
2024/01/31 11:14:37;;;;;;;1.10;1.10;;;7.40;99.90;6.30;101172;;;;610304;231;24006;-76